首页
METAR-TAF:

METAR-TAF

机场 :

Tiree, 苏格兰

纬度: 56-30N, 经度: 006-53W, 海拔: 12米

当前天气观测

该预报发布于17分钟前的09:50 UTC
风速12节,风向
温度 7°C
湿度 70%
气压 997 hPa
能见度10公里或以上
少量云层高于3200英尺

METAR: EGPU 220950Z 09012KT 9999 FEW032 07/02 Q0997

时间: 10:07 (10:07 UTC)

预报

该预报发布于2小时和6分钟前的08:01 UTC
预报有效从22日的 09点(UTC)到 22日的 18点(UTC)
风速12节,风向
能见度10公里或以上
散云层高于3500英尺

TAF: EGPU 220801Z 2209/2218 09012KT 9999 SCT035

超过4000个机场的气象观测和天气预报(METAR&TAF报告)。

可查询的气象台以黄色和红色小点在地图上表示。

将鼠标移到小点上方,可查看气象台名称。

然后点击查看天气观测和预报。

如需切换地图:点击带黑十字的绿色按钮放大地图;点击带横线的绿色按钮缩小地图;或者点击绿色箭头查看邻近地区的地图。


METAR-TAF: